Breese, Illinois
Current Conditions -  °F | °C
As of 6:58 AM on Friday 19 Dec 2014 (Local Time) from KBLV Reporting Station
Haze Haze  
Wind Chill: 26°   Ceiling: Unl
Heat Index: 26°   Visibility: 5mi
Dew Point: 25°   Wind: 3mph
Humidity: 99%   Direction: 50°NE
Pressure: 30.3"   Gusts: NA
Location:  38.61°N, 89.53°W
Report Text: KBLV 191258Z AUTO 05003KT 5SM BR CLR M03/M04 A3030 RMK AO2 SLP269 T10351037
Loading
Personal Weather Stations






























Interactive Weather Map New forecast layout! Learn more

10-Day Weather Forecast

Advertisements
Track Severe Weather on mobile